Hlavní strana
METAR-TAF:

METAR-TAF

Letiště :

Diourbel, Senegal

zeměpisná šířka: 14-39N, zeměpisná délka: 016-14W, výška: 7 m

Aktuální stav počasí

Zpráva byla vytvořena před 1 hodinou a 2 minutami, v 00:00 UTC
Severoseverovýchodní vítr 4 kt
Teplota 25°C
Vlhkost vzduchu 36%
Tlak 1015 hPa
Viditelnost: 8000 m

METAR: GOOD 080000Z 02004KT 8000 NSC 25/09 Q1015

Čas: 01:02 (01:02 UTC)


TAF: chybějící

Stav a předpovědi počasí z více než 4 000 letišť (zprávy METAR a TAF).

Červené a žluté tečky na mapě představují dostupné meteorologické stanice.

Když kurzor umístíte na tečku, zobrazí se název stanice.

Pak kliknutím zobrazíte stav a předpověď počasí.

Chcete-li změnit mapu, kliknutím na zelené tlačítko se znaménkem +mapu přiblížíte, kliknutím na zelené tlačítko se znaménkem – mapu oddálíte a kliknutím na zelené šipky přejdete na sousední mapy.


METAR-TAF: